메인 페이지
METAR-TAF:

METAR-TAF

공항 :

Ponta Delgada, 아조레스, 포르투갈

요한 바오로 2세 공항

위도: 37-44N, 경도: 025-42W, 고도: 71m

현재 날씨관측

예보는 23분 전, 05:30시(UTC)에 발표되었습니다.
남남동12kt
온도 15°C
습도 59%
기압 1023 hPa
시정 10km 이상
고도 2000ft 상공 구름 조금
고도 4000ft 상공 구름 많음

METAR: LPPD 200530Z 15012KT 9999 FEW020 BKN040 15/07 Q1023

시각: 04:53 (05:53 UTC)

예보

예보는 53분 전, 05:00시(UTC)에 발표되었습니다.
예보 대상 시간: 20일 06시부터 21일 06시까지 (UTC)
남남동15kt
시정 10km 이상
고도 2000ft 상공 구름 보통
일시적
20일 06시부터 21일 06시까지 (UTC)
고도 1800ft 상공 구름 조금
고도 4000ft 상공 구름 많음

TAF: LPPD 200500Z 2006/2106 15015KT 9999 SCT020 TEMPO 2006/2106 FEW018 BKN040

4,000개 이상의 공항 관측 자료 및 예보 (METAR 및 TAF 보고).

지도상에서 검색 가능한 기상관측소가 노란 점과 빨간 점으로 표시되어 있습니다.

기상관측소 명을 보려면 표시 위로 마우스를 이동하세요.

날씨 관측과 예보를 보려면 클릭하세요.

지도 변경 : 확대하려면 엑스 표시가 있는 녹색 버튼, 축소하려면 빼기 표시가 있는 녹색 버튼, 다음 페이지의 지도를 보려면 녹색 화살표를 클릭하세요.


METAR-TAF: